Back to Top

Language: 

My Weather Underground Personal Weather Station Historical Data with Graphs...

Delerius Weather Station Historical Data
Daily Summary for March 5, 2017 Units:  Metric    English   Both
« Previous Day
Next Day »
Daily Weekly Monthly Yearly Custom
  High: Low: Average:
Temperature: 6.6 °C 4.2 °C 5.3 °C
Dew Point: 4.8 °C 2.3 °C 3.9 °C
Humidity: 96 % 85 % 91 %
Wind Speed: 16.1 km/h 0 km/h 7.7 km/h
Wind Gust: 25.7 km/h - -
Wind:- - SSW
Pressure: 996.8 hPa 985 hPa -
Precipitation: 5.33 mm    
Historical Graphs
 
 
Tabular Data for March 5, 2017
Time Temperature Dew Point Pressure Wind Wind Speed Wind Gust Humidity Rainfall Rate (Hourly) solar Conditions
00:00 6.1 °C 4.1 °C 986.7 hPa SSW 12.9 km/h 14.5 km/h 87 % 0 mm 0 W/m2
00:05 6.1 °C 4.1 °C 986.7 hPa SW 12.9 km/h 14.5 km/h 87 % 0 mm 0 W/m2
00:15 6.1 °C 4.1 °C 986.7 hPa SW 11.3 km/h 12.9 km/h 87 % 0 mm 0 W/m2
00:20 6.1 °C 4.1 °C 986.7 hPa SW 9.7 km/h 9.7 km/h 87 % 0 mm 0 W/m2
00:25 6.1 °C 4.1 °C 986.7 hPa SW 8 km/h 9.7 km/h 87 % 0 mm 0 W/m2
00:30 6.1 °C 4.1 °C 986.7 hPa SW 6.4 km/h 6.4 km/h 87 % 0 mm 0 W/m2
00:40 6.2 °C 4.2 °C 986.7 hPa SSW 8 km/h 8 km/h 87 % 0 mm 0 W/m2
00:45 6.2 °C 4.2 °C 986.7 hPa South 8 km/h 12.9 km/h 87 % 0 mm 0 W/m2
00:55 6.3 °C 4.3 °C 986.7 hPa SSW 9.7 km/h 12.9 km/h 87 % 0 mm 0 W/m2
01:00 6.3 °C 4.2 °C 986.7 hPa South 9.7 km/h 11.3 km/h 86 % 0 mm 0 W/m2
01:05 6.4 °C 4.4 °C 986.7 hPa SSW 9.7 km/h 25.7 km/h 87 % 0 mm 0 W/m2
01:10 6.4 °C 4.4 °C 986.7 hPa South 9.7 km/h 25.7 km/h 87 % 0 mm 0 W/m2
01:15 6.4 °C 4.4 °C 986.7 hPa SSW 9.7 km/h 25.7 km/h 87 % 0 mm 0 W/m2
01:20 6.4 °C 4.4 °C 986.7 hPa South 11.3 km/h 25.7 km/h 87 % 0 mm 0 W/m2
01:30 6.4 °C 4.4 °C 986.7 hPa SSW 11.3 km/h 11.3 km/h 87 % 0 mm 0 W/m2
01:35 6.4 °C 4.4 °C 986.7 hPa South 9.7 km/h 12.9 km/h 87 % 0 mm 0 W/m2
01:40 6.4 °C 4.4 °C 986.7 hPa SSW 9.7 km/h 25.7 km/h 87 % 0 mm 0 W/m2
01:45 6.4 °C 4.4 °C 986.7 hPa SSW 9.7 km/h 25.7 km/h 87 % 0 mm 0 W/m2
01:50 6.4 °C 4.4 °C 986.7 hPa SSW 9.7 km/h 25.7 km/h 87 % 0 mm 0 W/m2
02:00 6.5 °C 4.5 °C 986.7 hPa SW 11.3 km/h 25.7 km/h 87 % 0 mm 0 W/m2
02:05 6.5 °C 4.5 °C 986.7 hPa SW 9.7 km/h 25.7 km/h 87 % 0 mm 0 W/m2
02:15 6.6 °C 4.6 °C 986.7 hPa SW 9.7 km/h 25.7 km/h 87 % 0 mm 0 W/m2
02:20 6.6 °C 4.4 °C 986.7 hPa SW 11.3 km/h 11.3 km/h 86 % 0 mm 0 W/m2
02:25 6.6 °C 4.4 °C 986.7 hPa WSW 11.3 km/h 25.7 km/h 86 % 0 mm 0 W/m2
02:35 6.6 °C 4.4 °C 986.7 hPa SW 11.3 km/h 25.7 km/h 86 % 0 mm 0 W/m2
02:40 6.6 °C 4.4 °C 986.7 hPa SW 11.3 km/h 25.7 km/h 86 % 0 mm 0 W/m2
02:45 6.6 °C 4.4 °C 986.7 hPa SW 11.3 km/h 25.7 km/h 86 % 0 mm 0 W/m2
02:50 6.6 °C 4.4 °C 986.7 hPa WSW 12.9 km/h 25.7 km/h 86 % 0 mm 0 W/m2
02:55 6.5 °C 4.3 °C 986.7 hPa SW 12.9 km/h 25.7 km/h 86 % 0 mm 0 W/m2
03:00 6.5 °C 4.3 °C 987 hPa WSW 12.9 km/h 12.9 km/h 86 % 0 mm 0 W/m2
03:15 6.4 °C 4.2 °C 987 hPa SW 14.5 km/h 25.7 km/h 86 % 0 mm 0 W/m2
03:20 6.3 °C 4.2 °C 987 hPa SW 12.9 km/h 25.7 km/h 86 % 0 mm 0 W/m2
03:25 6.2 °C 4.2 °C 987 hPa WSW 14.5 km/h 25.7 km/h 87 % 0 mm 0 W/m2
03:30 6.2 °C 4.2 °C 987 hPa SW 16.1 km/h 16.1 km/h 87 % 0 mm 0 W/m2
03:35 6.1 °C 4.1 °C 987 hPa SW 16.1 km/h 19.3 km/h 87 % 0 mm 0 W/m2
03:45 6 °C 4.2 °C 987 hPa SW 12.9 km/h 25.7 km/h 88 % 0 mm 0 W/m2
03:50 6 °C 4.2 °C 987 hPa SW 12.9 km/h 25.7 km/h 88 % 0 mm 0 W/m2
03:55 5.9 °C 4.1 °C 987 hPa SW 12.9 km/h 25.7 km/h 88 % 0 mm 0 W/m2
04:00 5.9 °C 3.9 °C 987 hPa SW 12.9 km/h 25.7 km/h 87 % 0 mm 0 W/m2
04:10 6 °C 3.8 °C 987 hPa SW 12.9 km/h 12.9 km/h 86 % 0 mm 0 W/m2
04:20 5.9 °C 3.6 °C 987 hPa SSW 11.3 km/h 11.3 km/h 85 % 0 mm 0 W/m2
04:25 5.9 °C 3.6 °C 987.4 hPa SW 11.3 km/h 25.7 km/h 85 % 0 mm 0 W/m2
04:30 5.9 °C 3.6 °C 987.4 hPa SW 11.3 km/h 11.3 km/h 85 % 0 mm 0 W/m2
04:35 5.9 °C 3.6 °C 987.4 hPa South 11.3 km/h 25.7 km/h 85 % 0 mm 0 W/m2
04:40 5.8 °C 3.5 °C 987.4 hPa SSW 12.9 km/h 25.7 km/h 85 % 0 mm 0 W/m2
04:50 5.7 °C 3.4 °C 987.4 hPa SW 8 km/h 8 km/h 85 % 0 mm 0 W/m2
04:55 5.7 °C 3.3 °C 987 hPa SSW 6.4 km/h 25.7 km/h 85 % 0 mm 0 W/m2
05:00 5.6 °C 3.3 °C 987 hPa SW 6.4 km/h 6.4 km/h 85 % 0 mm 0 W/m2
05:05 5.5 °C 3.2 °C 987 hPa SW 4.8 km/h 25.7 km/h 85 % 0 mm 0 W/m2
05:10 5.4 °C 3.1 °C 987 hPa SW 4.8 km/h 4.8 km/h 85 % 0 mm 0 W/m2
05:15 5.3 °C 3 °C 987 hPa SW 4.8 km/h 6.4 km/h 85 % 0 mm 0 W/m2
05:25 5.3 °C 2.9 °C 987 hPa SW 6.4 km/h 25.7 km/h 85 % 0 mm 0 W/m2
05:35 5.3 °C 2.9 °C 987 hPa South 8 km/h 25.7 km/h 85 % 0 mm 0 W/m2
05:40 5.2 °C 2.9 °C 987 hPa SSW 9.7 km/h 25.7 km/h 85 % 0 mm 0 W/m2
05:45 5.2 °C 2.8 °C 987 hPa SSW 9.7 km/h 25.7 km/h 85 % 0 mm 0 W/m2
05:50 5.1 °C 2.8 °C 987 hPa South 8 km/h 25.7 km/h 85 % 0 mm 0 W/m2
06:00 5.1 °C 2.9 °C 987 hPa SSW 9.7 km/h 25.7 km/h 86 % 0 mm 0 W/m2
06:05 5.1 °C 2.9 °C 987 hPa SSW 14.5 km/h 25.7 km/h 86 % 0 mm 0 W/m2
06:10 5 °C 2.8 °C 987 hPa SSW 14.5 km/h 25.7 km/h 86 % 0 mm 0 W/m2
06:15 5 °C 2.8 °C 987 hPa SW 16.1 km/h 25.7 km/h 86 % 0 mm 0 W/m2
06:20 5 °C 2.8 °C 987 hPa SSW 16.1 km/h 16.1 km/h 86 % 0 mm 0 W/m2
06:30 5 °C 2.8 °C 987 hPa SW 3.2 km/h 3.2 km/h 86 % 0 mm 0 W/m2
06:35 4.9 °C 2.6 °C 986.7 hPa Calm   25.7 km/h 85 % 0 mm 0 W/m2
06:40 4.8 °C 2.6 °C 986.7 hPa SW 1.6 km/h 25.7 km/h 86 % 0 mm 0 W/m2
06:45 4.8 °C 2.6 °C 986.7 hPa SW 1.6 km/h 25.7 km/h 86 % 0 mm 5 W/m2
06:55 4.6 °C 2.4 °C 986.7 hPa ESE 3.2 km/h 25.7 km/h 86 % 0 mm 12 W/m2
07:00 4.4 °C 2.4 °C 986.7 hPa ESE 3.2 km/h 3.2 km/h 87 % 0 mm 16 W/m2
07:10 4.2 °C 2.4 °C 986.3 hPa East 3.2 km/h 3.2 km/h 88 % 0 mm 23 W/m2
07:15 4.2 °C 2.3 °C 986.3 hPa East 3.2 km/h 25.7 km/h 88 % 0 mm 60 W/m2
07:20 4.3 °C 2.6 °C 986.3 hPa East 1.6 km/h 25.7 km/h 89 % 0 mm 53 W/m2
07:25 4.4 °C 2.7 °C 986.3 hPa East 1.6 km/h 25.7 km/h 89 % 0 mm 30 W/m2
07:30 4.4 °C 2.6 °C 986.3 hPa ESE 3.2 km/h 25.7 km/h 88 % 0 mm 35 W/m2
07:40 4.4 °C 2.7 °C 986.3 hPa SSE 8 km/h 8 km/h 89 % 0 mm 56 W/m2
07:45 4.5 °C 2.8 °C 986.3 hPa SSE 4.8 km/h 25.7 km/h 89 % 0 mm 123 W/m2
07:50 4.7 °C 3.1 °C 986.3 hPa ESE 3.2 km/h 25.7 km/h 89 % 0 mm 135 W/m2
07:55 5 °C 3.2 °C 986.3 hPa ESE 4.8 km/h 25.7 km/h 88 % 0 mm 146 W/m2
08:00 5.2 °C 3.3 °C 986.3 hPa East 3.2 km/h 25.7 km/h 88 % 0 mm 44 W/m2
08:10 5 °C 3 °C 986.3 hPa SE 3.2 km/h 25.7 km/h 87 % 0 mm 107 W/m2
08:15 5.1 °C 3.2 °C 986.3 hPa SE 3.2 km/h 25.7 km/h 88 % 0 mm 279 W/m2
08:20 5.3 °C 3.4 °C 986.3 hPa SE 4.8 km/h 25.7 km/h 88 % 0 mm 262 W/m2
08:25 5.5 °C 3.5 °C 986.3 hPa SE 6.4 km/h 25.7 km/h 87 % 0 mm 257 W/m2
08:30 5.5 °C 3.5 °C 986.3 hPa ESE 8 km/h 8 km/h 87 % 0 mm 276 W/m2
08:35 5.6 °C 3.6 °C 986.3 hPa SSE 9.7 km/h 11.3 km/h 87 % 0 mm 237 W/m2
08:45 5.4 °C 3.4 °C 986.3 hPa SE 8 km/h 25.7 km/h 87 % 0 mm 120 W/m2
08:50 5.3 °C 3.3 °C 986.3 hPa ESE 4.8 km/h 25.7 km/h 87 % 0 mm 79 W/m2
08:55 5.3 °C 3.4 °C 986.3 hPa South 6.4 km/h 25.7 km/h 88 % 0 mm 65 W/m2
09:00 5.3 °C 3.4 °C 986.3 hPa SE 6.4 km/h 6.4 km/h 88 % 0 mm 65 W/m2
09:05 5.3 °C 3.4 °C 986.3 hPa SSE 4.8 km/h 25.7 km/h 88 % 0 mm 83 W/m2
09:10 5.3 °C 3.4 °C 986 hPa SE 4.8 km/h 25.7 km/h 88 % 0 mm 100 W/m2
09:20 5.4 °C 3.7 °C 986 hPa ESE 4.8 km/h 4.8 km/h 89 % 0 mm 91 W/m2
09:25 5.4 °C 3.7 °C 986 hPa ESE 6.4 km/h 8 km/h 89 % 0 mm 97 W/m2
09:30 5.4 °C 3.8 °C 986 hPa SE 8 km/h 25.7 km/h 89 % 0 mm 111 W/m2
09:40 5.6 °C 3.7 °C 986 hPa SE 9.7 km/h 9.7 km/h 88 % 0 mm 95 W/m2
09:45 5.6 °C 3.8 °C 986 hPa SSE 11.3 km/h 11.3 km/h 88 % 0 mm 105 W/m2
09:55 5.7 °C 3.9 °C 986 hPa SSE 9.7 km/h 25.7 km/h 88 % 0 mm 77 W/m2
10:00 5.7 °C 4.1 °C 986 hPa ESE 8 km/h 8 km/h 89 % 0 mm 79 W/m2
10:05 5.8 °C 4.3 °C 985.7 hPa ESE 6.4 km/h 25.7 km/h 90 % 0 mm 128 W/m2
10:10 5.7 °C 4.2 °C 985.7 hPa East 8 km/h 25.7 km/h 90 % 0 mm 172 W/m2
10:15 5.7 °C 4.2 °C 985.7 hPa SE 9.7 km/h 25.7 km/h 90 % 0 mm 151 W/m2
10:25 5.8 °C 4.4 °C 985.3 hPa East 6.4 km/h 25.7 km/h 91 % 0 mm 105 W/m2
10:30 5.8 °C 4.4 °C 985.3 hPa ESE 6.4 km/h 25.7 km/h 91 % 0 mm 109 W/m2
10:35 5.8 °C 4.4 °C 985 hPa ESE 6.4 km/h 25.7 km/h 91 % 0 mm 123 W/m2
10:40 5.8 °C 4.5 °C 985 hPa East 4.8 km/h 4.8 km/h 91 % 0 mm 111 W/m2
10:45 5.8 °C 4.5 °C 985 hPa East 4.8 km/h 6.4 km/h 91 % 0 mm 102 W/m2
10:50 5.8 °C 4.5 °C 985 hPa East 8 km/h 25.7 km/h 91 % 0 mm 109 W/m2
11:00 5.9 °C 4.7 °C 985 hPa ENE 6.4 km/h 25.7 km/h 92 % 0 mm 139 W/m2
11:10 5.9 °C 4.7 °C 985 hPa ESE 6.4 km/h 25.7 km/h 92 % 0 mm 88 W/m2
11:15 5.9 °C 4.6 °C 985 hPa ESE 6.4 km/h 25.7 km/h 91 % 0 mm 63 W/m2
11:20 5.9 °C 4.6 °C 985 hPa SE 8 km/h 25.7 km/h 91 % 0 mm 65 W/m2
11:25 5.8 °C 4.5 °C 985 hPa East 11.3 km/h 25.7 km/h 91 % 0 mm 97 W/m2
11:35 5.8 °C 4.6 °C 985 hPa ESE 9.7 km/h 25.7 km/h 92 % 0 mm 72 W/m2
11:40 5.8 °C 4.6 °C 985 hPa East 11.3 km/h 11.3 km/h 92 % 0 mm 79 W/m2
11:45 5.7 °C 4.5 °C 985 hPa ESE 9.7 km/h 25.7 km/h 92 % 1.02 mm 62 W/m2
11:50 5.7 °C 4.7 °C 985 hPa ESE 8 km/h 8 km/h 93 % 2.29 mm 49 W/m2
11:55 5.7 °C 4.6 °C 985 hPa ENE 6.4 km/h 25.7 km/h 93 % 2.79 mm 47 W/m2
12:05 5.6 °C 4.5 °C 985 hPa ESE 8 km/h 14.5 km/h 93 % 2.79 mm 42 W/m2
12:10 5.6 °C 4.5 °C 985 hPa ESE 9.7 km/h 25.7 km/h 93 % 1.78 mm 79 W/m2
12:15 5.6 °C 4.7 °C 985 hPa ESE 9.7 km/h 25.7 km/h 94 % 1.78 mm 77 W/m2
12:20 5.4 °C 4.6 °C 985 hPa SE 11.3 km/h 25.7 km/h 94 % 1.27 mm 65 W/m2
12:25 5.2 °C 4.1 °C 985 hPa South 12.9 km/h 25.7 km/h 93 % 1.27 mm 63 W/m2
12:35 4.9 °C 3.8 °C 985 hPa SSE 9.7 km/h 25.7 km/h 93 % 1.02 mm 81 W/m2
12:45 4.8 °C 3.8 °C 985 hPa SE 11.3 km/h 11.3 km/h 93 % 1.02 mm 88 W/m2
12:50 4.8 °C 3.8 °C 985 hPa ESE 9.7 km/h 25.7 km/h 93 % 1.27 mm 79 W/m2
12:55 4.8 °C 3.8 °C 985 hPa ESE 9.7 km/h 25.7 km/h 93 % 1.27 mm 88 W/m2
13:00 4.8 °C 3.7 °C 985 hPa East 9.7 km/h 9.7 km/h 93 % 1.27 mm 91 W/m2
13:05 4.7 °C 3.8 °C 985 hPa SE 9.7 km/h 25.7 km/h 94 % 0 mm 79 W/m2
13:10 4.7 °C 3.8 °C 985 hPa East 8 km/h 8 km/h 94 % 0 mm 74 W/m2
13:15 4.7 °C 3.8 °C 985 hPa ESE 6.4 km/h 25.7 km/h 94 % 0 mm 83 W/m2
13:20 4.6 °C 3.5 °C 985 hPa ESE 8 km/h 8 km/h 93 % 0 mm 72 W/m2
13:25 4.5 °C 3.4 °C 985.3 hPa East 6.4 km/h 25.7 km/h 93 % 1.27 mm 65 W/m2
13:30 4.6 °C 3.7 °C 985.3 hPa East 3.2 km/h 25.7 km/h 94 % 2.03 mm 88 W/m2
13:35 4.4 °C 3.3 °C 985.3 hPa East 4.8 km/h 25.7 km/h 93 % 2.03 mm 100 W/m2
13:45 4.4 °C 3.6 °C 985.3 hPa East 4.8 km/h 25.7 km/h 94 % 1.02 mm 97 W/m2
13:50 4.5 °C 3.6 °C 985.3 hPa NE 3.2 km/h 25.7 km/h 94 % 0 mm 90 W/m2
13:55 4.4 °C 3.6 °C 985.3 hPa NE 4.8 km/h 25.7 km/h 94 % 0 mm 65 W/m2
14:00 4.4 °C 3.6 °C 985.7 hPa NE 4.8 km/h 25.7 km/h 94 % 0 mm 58 W/m2
14:10 4.5 °C 3.6 °C 985.3 hPa NE 4.8 km/h 25.7 km/h 94 % 0 mm 51 W/m2
14:20 4.5 °C 3.6 °C 985.7 hPa NE 6.4 km/h 25.7 km/h 94 % 0 mm 49 W/m2
14:25 4.5 °C 3.6 °C 985.7 hPa NE 4.8 km/h 25.7 km/h 94 % 0 mm 51 W/m2
14:30 4.6 °C 3.8 °C 985.7 hPa North 6.4 km/h 6.4 km/h 95 % 0 mm 46 W/m2
14:35 4.6 °C 3.8 °C 985.7 hPa NNE 8 km/h 8 km/h 95 % 0 mm 44 W/m2
14:40 4.6 °C 3.9 °C 985.7 hPa North 8 km/h 8 km/h 95 % 0 mm 35 W/m2
14:45 4.7 °C 3.9 °C 985.7 hPa NNE 4.8 km/h 25.7 km/h 95 % 0 mm 33 W/m2
14:55 4.7 °C 4 °C 985.7 hPa NE 6.4 km/h 25.7 km/h 95 % 0 mm 26 W/m2
15:00 4.8 °C 4.1 °C 986 hPa NNE 4.8 km/h 4.8 km/h 95 % 0 mm 35 W/m2
15:05 4.8 °C 4.1 °C 986 hPa NNE 3.2 km/h 25.7 km/h 95 % 0 mm 35 W/m2
15:10 4.8 °C 4.1 °C 986 hPa NNE 3.2 km/h 3.2 km/h 95 % 0 mm 28 W/m2
15:15 4.8 °C 4.1 °C 986.3 hPa NNE 3.2 km/h 6.4 km/h 95 % 0 mm 44 W/m2
15:25 4.9 °C 4.3 °C 986.3 hPa NE 3.2 km/h 25.7 km/h 96 % 0 mm 49 W/m2
15:30 4.9 °C 4.2 °C 986.3 hPa NE 3.2 km/h 25.7 km/h 95 % 0 mm 60 W/m2
15:35 4.9 °C 4.2 °C 986.3 hPa NE 3.2 km/h 25.7 km/h 95 % 0 mm 58 W/m2
15:45 5.1 °C 4.4 °C 986.7 hPa NE 1.6 km/h 4.8 km/h 96 % 0 mm 26 W/m2
15:50 4.9 °C 4.2 °C 986.7 hPa NE 3.2 km/h 25.7 km/h 95 % 0 mm 26 W/m2
16:00 4.9 °C 4.2 °C 987 hPa ENE 1.6 km/h 1.6 km/h 95 % 0 mm 35 W/m2
16:05 4.8 °C 4.1 °C 987 hPa Calm   25.7 km/h 95 % 0 mm 25 W/m2
16:10 4.8 °C 4.1 °C 987 hPa Calm   25.7 km/h 95 % 0 mm 23 W/m2
16:15 4.8 °C 4.1 °C 987.4 hPa ENE 1.6 km/h 25.7 km/h 95 % 0 mm 28 W/m2
16:20 4.7 °C 4 °C 987.4 hPa ENE 1.6 km/h 1.6 km/h 95 % 1.52 mm 30 W/m2
16:25 4.6 °C 3.9 °C 987.4 hPa Calm   25.7 km/h 95 % 1.52 mm 32 W/m2
16:30 4.7 °C 3.9 °C 987.4 hPa Calm   25.7 km/h 95 % 1.52 mm 30 W/m2
16:35 4.6 °C 3.9 °C 987.4 hPa Calm   25.7 km/h 95 % 1.52 mm 30 W/m2
16:40 4.6 °C 3.9 °C 987.7 hPa Calm   25.7 km/h 95 % 1.02 mm 28 W/m2
16:45 4.6 °C 3.9 °C 987.7 hPa NE 1.6 km/h 25.7 km/h 95 % 1.02 mm 23 W/m2
16:50 4.7 °C 3.9 °C 987.7 hPa NE 1.6 km/h 25.7 km/h 95 % 1.02 mm 23 W/m2
16:55 4.7 °C 3.9 °C 987.7 hPa NW 1.6 km/h 25.7 km/h 95 % 1.27 mm 23 W/m2
17:05 4.7 °C 4 °C 988 hPa NNW 3.2 km/h 25.7 km/h 95 % 1.27 mm 12 W/m2
17:10 4.7 °C 4 °C 988 hPa NW 3.2 km/h 25.7 km/h 95 % 1.27 mm 9 W/m2
17:20 4.7 °C 4 °C 988.4 hPa NW 6.4 km/h 25.7 km/h 95 % 2.03 mm 7 W/m2
17:25 4.7 °C 4 °C 988.4 hPa NNW 6.4 km/h 25.7 km/h 95 % 1.27 mm 5 W/m2
17:30 4.7 °C 4 °C 988.7 hPa NW 8 km/h 8 km/h 95 % 1.02 mm 5 W/m2
17:40 4.6 °C 3.8 °C 988.7 hPa NNW 8 km/h 8 km/h 95 % 1.27 mm 0 W/m2
17:45 4.6 °C 3.8 °C 989.1 hPa NNW 4.8 km/h 25.7 km/h 95 % 1.27 mm 0 W/m2
17:50 4.6 °C 3.9 °C 989.1 hPa NW 4.8 km/h 25.7 km/h 95 % 1.52 mm 0 W/m2
17:55 4.6 °C 3.9 °C 989.1 hPa NNW 4.8 km/h 25.7 km/h 95 % 1.52 mm 0 W/m2
18:00 4.7 °C 3.9 °C 989.4 hPa NNW 4.8 km/h 4.8 km/h 95 % 1.27 mm 0 W/m2
18:05 4.6 °C 3.9 °C 989.4 hPa NW 4.8 km/h 25.7 km/h 95 % 1.02 mm 0 W/m2
18:15 4.6 °C 3.9 °C 989.7 hPa NW 6.4 km/h 25.7 km/h 95 % 0 mm 0 W/m2
18:20 4.6 °C 3.9 °C 989.7 hPa NW 8 km/h 25.7 km/h 95 % 0 mm 0 W/m2
18:25 4.6 °C 3.9 °C 990.1 hPa NNW 8 km/h 25.7 km/h 95 % 0 mm 0 W/m2
18:30 4.7 °C 3.9 °C 990.1 hPa NW 8 km/h 8 km/h 95 % 0 mm 0 W/m2
18:40 4.7 °C 4 °C 990.1 hPa NW 9.7 km/h 9.7 km/h 95 % 0 mm 0 W/m2
18:45 4.7 °C 4 °C 990.4 hPa West 9.7 km/h 25.7 km/h 95 % 0 mm 0 W/m2
18:55 4.7 °C 4.1 °C 990.4 hPa NW 9.7 km/h 25.7 km/h 96 % 0 mm 0 W/m2
19:00 4.7 °C 4.1 °C 990.4 hPa NW 9.7 km/h 25.7 km/h 96 % 0 mm 0 W/m2
19:05 4.7 °C 4.1 °C 990.7 hPa WNW 9.7 km/h 25.7 km/h 96 % 0 mm 0 W/m2
19:10 4.8 °C 4.2 °C 990.7 hPa West 11.3 km/h 11.3 km/h 96 % 0 mm 0 W/m2
19:20 4.8 °C 4.2 °C 991.1 hPa NNW 9.7 km/h 25.7 km/h 96 % 0 mm 0 W/m2
19:25 4.9 °C 4.3 °C 991.1 hPa West 8 km/h 25.7 km/h 96 % 0 mm 0 W/m2
19:30 4.9 °C 4.3 °C 991.1 hPa NW 8 km/h 25.7 km/h 96 % 0 mm 0 W/m2
19:35 4.9 °C 4.3 °C 991.4 hPa NNW 8 km/h 25.7 km/h 96 % 0 mm 0 W/m2
19:40 5 °C 4.4 °C 991.4 hPa NW 8 km/h 8 km/h 96 % 0 mm 0 W/m2
19:45 5.1 °C 4.4 °C 991.4 hPa NW 9.7 km/h 12.9 km/h 96 % 0 mm 0 W/m2
19:55 5.1 °C 4.4 °C 991.8 hPa NW 8 km/h 25.7 km/h 96 % 0 mm 0 W/m2
20:00 5.1 °C 4.5 °C 992.1 hPa NW 8 km/h 25.7 km/h 96 % 0 mm 0 W/m2
20:10 5.2 °C 4.6 °C 992.1 hPa NW 9.7 km/h 25.7 km/h 96 % 0 mm 0 W/m2
20:15 5.2 °C 4.6 °C 992.1 hPa WNW 9.7 km/h 25.7 km/h 96 % 0 mm 0 W/m2
20:20 5.2 °C 4.6 °C 992.4 hPa WNW 9.7 km/h 25.7 km/h 96 % 0 mm 0 W/m2
20:30 5.2 °C 4.6 °C 992.4 hPa NW 9.7 km/h 9.7 km/h 96 % 0 mm 0 W/m2
20:35 5.2 °C 4.6 °C 992.8 hPa NW 9.7 km/h 25.7 km/h 96 % 0 mm 0 W/m2
20:40 5.2 °C 4.6 °C 993.1 hPa WNW 9.7 km/h 25.7 km/h 96 % 0 mm 0 W/m2
20:45 5.3 °C 4.7 °C 993.1 hPa NW 11.3 km/h 25.7 km/h 96 % 0 mm 0 W/m2
20:50 5.3 °C 4.7 °C 993.1 hPa WNW 9.7 km/h 25.7 km/h 96 % 0 mm 0 W/m2
21:00 5.3 °C 4.7 °C 993.5 hPa West 9.7 km/h 25.7 km/h 96 % 0 mm 0 W/m2
21:05 5.4 °C 4.8 °C 993.5 hPa NW 9.7 km/h 25.7 km/h 96 % 0 mm 0 W/m2
21:10 5.4 °C 4.8 °C 993.5 hPa NW 9.7 km/h 25.7 km/h 96 % 0 mm 0 W/m2
21:20 5.4 °C 4.8 °C 993.8 hPa WNW 9.7 km/h 9.7 km/h 96 % 0 mm 0 W/m2
21:25 5.4 °C 4.8 °C 994.1 hPa WNW 9.7 km/h 25.7 km/h 96 % 0 mm 0 W/m2
21:35 5.4 °C 4.7 °C 994.5 hPa WNW 9.7 km/h 12.9 km/h 95 % 0 mm 0 W/m2
21:40 5.4 °C 4.8 °C 994.5 hPa WNW 8 km/h 8 km/h 96 % 0 mm 0 W/m2
21:45 5.4 °C 4.8 °C 994.8 hPa NW 8 km/h 25.7 km/h 96 % 0 mm 0 W/m2
21:50 5.4 °C 4.7 °C 994.8 hPa NW 9.7 km/h 9.7 km/h 95 % 0 mm 0 W/m2
21:55 5.4 °C 4.7 °C 994.8 hPa NW 9.7 km/h 25.7 km/h 95 % 0 mm 0 W/m2
22:00 5.3 °C 4.6 °C 995.1 hPa WNW 9.7 km/h 25.7 km/h 95 % 0 mm 0 W/m2
22:10 5.3 °C 4.6 °C 995.1 hPa WNW 9.7 km/h 25.7 km/h 95 % 0 mm 0 W/m2
22:15 5.2 °C 4.5 °C 995.5 hPa NW 8 km/h 25.7 km/h 95 % 0 mm 0 W/m2
22:20 5.1 °C 4.4 °C 995.5 hPa WNW 8 km/h 25.7 km/h 95 % 0 mm 0 W/m2
22:25 5.1 °C 4.3 °C 995.8 hPa WNW 9.7 km/h 25.7 km/h 95 % 0 mm 0 W/m2
22:30 5.1 °C 4.3 °C 995.8 hPa WNW 9.7 km/h 25.7 km/h 95 % 0 mm 0 W/m2
22:40 5 °C 4.3 °C 995.8 hPa West 11.3 km/h 11.3 km/h 95 % 0 mm 0 W/m2
22:45 4.9 °C 4.2 °C 996.2 hPa West 9.7 km/h 25.7 km/h 95 % 0 mm 0 W/m2
22:55 4.8 °C 3.9 °C 996.2 hPa NW 9.7 km/h 25.7 km/h 94 % 0 mm 0 W/m2
23:00 4.8 °C 4.1 °C 996.2 hPa WNW 9.7 km/h 9.7 km/h 95 % 0 mm 0 W/m2
23:05 4.9 °C 4.2 °C 996.2 hPa NW 9.7 km/h 11.3 km/h 95 % 0 mm 0 W/m2
23:15 4.8 °C 3.9 °C 996.5 hPa NW 8 km/h 25.7 km/h 94 % 0 mm 0 W/m2
23:20 4.8 °C 3.9 °C 996.5 hPa NW 8 km/h 8 km/h 94 % 0 mm 0 W/m2
23:25 4.7 °C 3.8 °C 996.5 hPa WNW 6.4 km/h 9.7 km/h 94 % 0 mm 0 W/m2
23:30 4.7 °C 3.8 °C 996.5 hPa NW 8 km/h 25.7 km/h 94 % 0 mm 0 W/m2
23:35 4.7 °C 3.8 °C 996.5 hPa NW 8 km/h 25.7 km/h 94 % 0 mm 0 W/m2
23:40 4.7 °C 3.8 °C 996.8 hPa NW 8 km/h 25.7 km/h 94 % 0 mm 0 W/m2
23:50 4.8 °C 4.1 °C 996.8 hPa NW 8 km/h 8 km/h 95 % 0 mm 0 W/m2
23:55 4.8 °C 3.9 °C 996.8 hPa NW 6.4 km/h 25.7 km/h 94 % 0 mm 0 W/m2
Delerius-Weather
Compliments of Weather Underground - 2 mb

Data updates at regular intervals.